Time;durP1;ratioP1;P1;durP2;ratioP2;P2;SDS_P1;SDS_P2;PMS_P1;PMS_P2;Temp;Humidity;BMP_temperature;BMP_pressure;BME280_temperature;BME280_humidity;BME280_pressure;Samples;Min_cycle;Max_cycle;Signal;HPM_P1;HPM_P2
2022/01/13 00:00:27;;;;;;;42.60;12.32;;;;;;;5.86;100.00;103316.91;5111913;28;20205;-48
2022/01/13 00:02:53;;;;;;;41.47;12.55;;;;;;;5.75;100.00;103304.31;5112133;28;20165;-43
2022/01/13 00:05:25;;;;;;;41.00;12.07;;;;;;;5.74;100.00;103318.44;5111811;28;20200;-45
2022/01/13 00:07:51;;;;;;;41.05;12.15;;;;;;;5.75;100.00;103301.66;5111710;28;20220;-46
2022/01/13 00:10:16;;;;;;;46.90;12.70;;;;;;;5.72;100.00;103308.66;5112336;28;20539;-43
2022/01/13 00:12:43;;;;;;;44.08;13.32;;;;;;;5.74;100.00;103285.66;5111494;28;20177;-40
2022/01/13 00:16:22;;;;;;;48.75;13.57;;;;;;;5.70;100.00;103302.41;5111888;28;20204;-46
2022/01/13 00:18:02;;;;;;;39.95;13.35;;;;;;;5.77;100.00;103299.00;5103299;28;20382;-41
2022/01/13 00:20:38;;;;;;;40.78;12.95;;;;;;;5.75;100.00;103300.72;5111820;28;20554;-45
2022/01/13 00:25:53;;;;;;;42.13;13.77;;;;;;;5.68;100.00;103298.81;5111715;28;20189;-44
2022/01/13 00:28:21;;;;;;;43.33;13.70;;;;;;;5.67;100.00;103297.03;5093382;28;20175;-41
2022/01/13 00:30:52;;;;;;;49.92;14.20;;;;;;;5.69;100.00;103289.97;5111337;27;20173;-44
2022/01/13 00:33:23;;;;;;;49.97;13.43;;;;;;;5.68;100.00;103293.47;5111669;28;20169;-42
2022/01/13 00:35:48;;;;;;;33.50;12.02;;;;;;;5.69;100.00;103290.88;5111446;28;20220;-43
2022/01/13 00:38:14;;;;;;;45.55;12.63;;;;;;;5.70;100.00;103279.34;5111566;28;20170;-45
2022/01/13 00:40:39;;;;;;;41.15;12.20;;;;;;;5.66;100.00;103285.47;5111270;28;20622;-42
2022/01/13 00:43:04;;;;;;;33.78;11.80;;;;;;;5.71;100.00;103281.16;5111463;28;20177;-42
2022/01/13 00:45:30;;;;;;;38.17;11.88;;;;;;;5.72;100.00;103284.72;5111277;28;20669;-47
2022/01/13 00:47:55;;;;;;;42.80;12.77;;;;;;;5.67;100.00;103284.63;5111195;28;20193;-41
2022/01/13 00:50:21;;;;;;;43.05;12.68;;;;;;;5.74;100.00;103288.31;5110230;28;20269;-42
2022/01/13 00:52:46;;;;;;;45.75;12.43;;;;;;;5.76;100.00;103287.47;5111235;28;20312;-42
2022/01/13 00:55:17;;;;;;;43.88;11.82;;;;;;;5.69;100.00;103296.19;5111158;28;20316;-42
2022/01/13 00:57:42;;;;;;;36.35;11.63;;;;;;;5.70;100.00;103297.97;5110882;28;20584;-45
2022/01/13 01:00:08;;;;;;;34.33;10.95;;;;;;;5.71;100.00;103305.09;5111338;28;20209;-43
2022/01/13 01:02:34;;;;;;;40.17;10.95;;;;;;;5.74;100.00;103304.25;5111021;28;20207;-41
2022/01/13 01:04:59;;;;;;;35.50;10.63;;;;;;;5.69;100.00;103301.50;5110852;28;20193;-45
2022/01/13 01:07:24;;;;;;;37.30;10.30;;;;;;;5.69;100.00;103314.81;5111085;28;20271;-41
2022/01/13 01:09:51;;;;;;;35.05;10.95;;;;;;;5.72;100.00;103308.66;5110267;28;20173;-42
2022/01/13 01:12:18;;;;;;;46.03;11.80;;;;;;;5.68;100.00;103313.00;5110947;28;20272;-42
2022/01/13 01:14:48;;;;;;;39.08;10.48;;;;;;;5.69;100.00;103327.22;5110520;28;20196;-45
2022/01/13 01:17:16;;;;;;;37.80;11.48;;;;;;;5.70;100.00;103324.56;5110915;28;20157;-43
2022/01/13 01:19:44;;;;;;;37.38;10.82;;;;;;;5.68;100.00;103323.63;5111020;28;20173;-43
2022/01/13 01:25:02;;;;;;;32.58;10.00;;;;;;;5.70;100.00;103319.25;5110810;28;20301;-42
2022/01/13 01:27:36;;;;;;;31.58;9.25;;;;;;;5.69;100.00;103313.91;5110541;28;20181;-41
2022/01/13 01:30:14;;;;;;;39.20;9.30;;;;;;;5.72;100.00;103320.19;5110865;28;20173;-43
2022/01/13 01:32:40;;;;;;;33.50;9.02;;;;;;;5.70;100.00;103313.94;5110569;28;20245;-48
2022/01/13 01:35:14;;;;;;;27.98;8.63;;;;;;;5.74;100.00;103314.91;5110889;28;20566;-47
2022/01/13 01:37:40;;;;;;;23.88;8.45;;;;;;;5.72;100.00;103316.63;5110644;28;20203;-41
2022/01/13 01:40:07;;;;;;;25.95;8.27;;;;;;;5.73;100.00;103316.69;5110362;28;20169;-42
2022/01/13 01:42:33;;;;;;;29.90;9.38;;;;;;;5.81;100.00;103305.28;5109363;28;20238;-43
2022/01/13 01:44:59;;;;;;;34.58;9.25;;;;;;;5.75;100.00;103301.66;5110404;28;20810;-41
2022/01/13 01:47:29;;;;;;;34.65;9.48;;;;;;;5.78;100.00;103307.03;5110421;28;20193;-43
2022/01/13 01:49:59;;;;;;;25.48;8.70;;;;;;;5.81;100.00;103300.88;5108890;28;20161;-43
2022/01/13 01:52:26;;;;;;;28.85;7.43;;;;;;;5.83;100.00;103309.78;5109075;28;20162;-47
2022/01/13 01:54:53;;;;;;;28.92;9.60;;;;;;;5.86;100.00;103300.97;5110353;28;20207;-41
2022/01/13 01:57:22;;;;;;;29.33;9.13;;;;;;;5.84;100.00;103305.34;5110078;28;20166;-47
2022/01/13 01:59:48;;;;;;;31.15;8.93;;;;;;;5.93;100.00;103300.25;5110380;28;20165;-43
2022/01/13 02:02:15;;;;;;;33.67;10.05;;;;;;;5.90;100.00;103303.75;5110754;28;20501;-41
2022/01/13 02:04:41;;;;;;;32.58;10.43;;;;;;;5.90;100.00;103294.84;5109120;28;20245;-43
2022/01/13 02:07:07;;;;;;;33.75;9.93;;;;;;;5.90;100.00;103286.84;5110150;28;20212;-43
2022/01/13 02:09:38;;;;;;;33.80;11.02;;;;;;;5.84;100.00;103289.38;5110169;28;20168;-42
2022/01/13 02:12:08;;;;;;;33.88;10.60;;;;;;;5.88;100.00;103285.91;5110292;28;20165;-46
2022/01/13 02:14:47;;;;;;;37.88;11.15;;;;;;;5.87;100.00;103281.47;5110216;28;20178;-43
2022/01/13 02:17:13;;;;;;;36.88;11.32;;;;;;;5.88;100.00;103272.63;5110284;28;20218;-43
2022/01/13 02:19:42;;;;;;;42.22;12.98;;;;;;;5.85;100.00;103273.47;5110475;28;20172;-42
2022/01/13 02:22:08;;;;;;;41.53;12.38;;;;;;;5.86;100.00;103267.28;5114061;28;20173;-43
2022/01/13 02:24:34;;;;;;;34.22;12.05;;;;;;;5.87;100.00;103265.53;5113829;28;20164;-41
2022/01/13 02:27:01;;;;;;;32.25;11.90;;;;;;;5.84;100.00;103273.41;5113866;28;20190;-48
2022/01/13 02:29:27;;;;;;;39.30;14.65;;;;;;;5.78;100.00;103277.75;5113747;28;20839;-42
2022/01/13 02:31:52;;;;;;;42.13;13.38;;;;;;;5.82;100.00;103269.84;5112576;28;20236;-46
2022/01/13 02:34:19;;;;;;;48.58;13.43;;;;;;;5.82;100.00;103277.84;5113635;28;20256;-41
2022/01/13 02:36:46;;;;;;;47.67;14.52;;;;;;;5.86;100.00;103283.25;5113494;28;20233;-42
2022/01/13 02:39:12;;;;;;;40.47;12.73;;;;;;;5.83;100.00;103284.94;5113690;28;20169;-42
2022/01/13 02:41:37;;;;;;;52.88;13.70;;;;;;;5.76;100.00;103286.56;5113387;28;20162;-42
2022/01/13 02:44:11;;;;;;;44.10;13.70;;;;;;;5.81;100.00;103278.69;5113613;28;20694;-45
2022/01/13 02:49:11;;;;;;;54.17;15.25;;;;;;;5.76;100.00;103274.16;5112321;27;20621;-42
2022/01/13 02:51:39;;;;;;;51.20;14.43;;;;;;;5.74;100.00;103259.94;5113471;27;20153;-46
2022/01/13 02:54:05;;;;;;;41.17;13.35;;;;;;;5.88;100.00;103254.00;5111791;28;20174;-41
2022/01/13 02:56:31;;;;;;;44.08;14.73;;;;;;;5.74;100.00;103262.59;5111169;28;20185;-44
2022/01/13 02:58:57;;;;;;;50.22;14.10;;;;;;;5.81;100.00;103238.78;5110593;28;20185;-41
2022/01/13 03:01:23;;;;;;;50.50;14.13;;;;;;;5.76;100.00;103239.59;5113268;28;20274;-44
2022/01/13 03:03:48;;;;;;;48.58;13.52;;;;;;;5.86;100.00;103245.09;5112550;28;20582;-44
2022/01/13 03:06:16;;;;;;;38.55;13.45;;;;;;;5.86;100.00;103223.81;5113086;28;20189;-43
2022/01/13 03:08:45;;;;;;;35.75;11.80;;;;;;;5.89;100.00;103218.56;5112772;28;20626;-44
2022/01/13 03:11:11;;;;;;;41.33;11.27;;;;;;;5.88;100.00;103215.00;5111779;28;20184;-43
2022/01/13 03:13:37;;;;;;;38.33;10.45;;;;;;;5.92;100.00;103208.84;5112973;28;20189;-40
2022/01/13 03:16:07;;;;;;;34.60;11.15;;;;;;;5.97;100.00;103211.66;5111950;28;20212;-42
2022/01/13 03:18:33;;;;;;;36.03;11.10;;;;;;;5.99;100.00;103201.91;5112775;28;20165;-47
2022/01/13 03:20:58;;;;;;;45.42;11.63;;;;;;;5.95;100.00;103198.31;5110377;28;20610;-45
2022/01/13 03:23:24;;;;;;;32.05;11.30;;;;;;;5.91;100.00;103195.53;5112240;28;20161;-48
2022/01/13 03:25:49;;;;;;;36.55;11.88;;;;;;;5.91;100.00;103195.53;5111452;27;20280;-46
2022/01/13 03:28:17;;;;;;;34.28;10.98;;;;;;;5.98;100.00;103192.16;5112428;28;20173;-46
2022/01/13 03:30:44;;;;;;;43.45;12.18;;;;;;;5.95;100.00;103200.09;5112342;28;20173;-45
2022/01/13 03:33:11;;;;;;;43.28;11.70;;;;;;;5.93;100.00;103194.69;5110144;28;20173;-46
2022/01/13 03:35:38;;;;;;;41.17;12.05;;;;;;;5.91;100.00;103199.09;5111817;28;20197;-47
2022/01/13 03:38:05;;;;;;;58.72;13.85;;;;;;;5.90;100.00;103202.63;5111893;28;20637;-47
2022/01/13 03:40:31;;;;;;;39.72;12.52;;;;;;;5.95;100.00;103200.97;5112257;28;20319;-47
2022/01/13 03:42:58;;;;;;;43.08;13.07;;;;;;;5.88;100.00;103212.34;5111854;28;20185;-45
2022/01/13 03:45:23;;;;;;;49.90;15.18;;;;;;;5.86;100.00;103194.53;5099463;28;20190;-46
2022/01/13 03:47:49;;;;;;;44.13;14.68;;;;;;;5.87;100.00;103205.22;5090137;28;20237;-47
2022/01/13 03:50:14;;;;;;;46.83;13.48;;;;;;;5.88;100.00;103201.72;5091410;28;20170;-47
2022/01/13 03:52:59;;;;;;;44.00;14.30;;;;;;;5.85;100.00;103195.41;5091509;28;20246;-45
2022/01/13 03:55:36;;;;;;;42.33;13.63;;;;;;;5.83;100.00;103211.34;5091177;28;20190;-46
2022/01/13 03:58:42;;;;;;;52.92;15.20;;;;;;;5.80;100.00;103207.75;5091413;28;20178;-45
2022/01/13 04:01:42;;;;;;;51.10;15.18;;;;;;;5.85;100.00;103204.28;5091005;28;20592;-46
2022/01/13 04:04:07;;;;;;;52.83;15.05;;;;;;;5.85;100.00;103211.38;5091442;28;20594;-49
2022/01/13 04:06:33;;;;;;;52.78;16.30;;;;;;;5.77;100.00;103204.16;5089285;28;20189;-47
2022/01/13 04:08:58;;;;;;;42.17;15.27;;;;;;;5.87;100.00;103201.66;5091150;28;20161;-45
2022/01/13 04:11:28;;;;;;;41.05;14.45;;;;;;;5.84;100.00;103207.84;5089715;28;20220;-46
2022/01/13 04:14:01;;;;;;;57.30;14.13;;;;;;;5.83;100.00;103194.50;5090829;28;20166;-48
2022/01/13 04:16:31;;;;;;;48.42;14.30;;;;;;;5.84;100.00;103185.63;5089565;28;20855;-46
2022/01/13 04:19:02;;;;;;;40.80;13.93;;;;;;;5.95;100.00;103190.34;5090662;28;20658;-43
2022/01/13 04:21:28;;;;;;;44.95;15.02;;;;;;;5.86;100.00;103197.19;5091426;28;20204;-47
2022/01/13 04:23:56;;;;;;;50.72;15.00;;;;;;;5.85;100.00;103200.75;5089226;28;20170;-45
2022/01/13 04:26:27;;;;;;;44.97;15.50;;;;;;;5.82;100.00;103188.28;5090067;28;20205;-47
2022/01/13 04:29:02;;;;;;;43.55;15.32;;;;;;;5.82;100.00;103190.06;5089411;28;20757;-46
2022/01/13 04:31:28;;;;;;;47.25;16.25;;;;;;;5.85;100.00;103188.31;5090772;28;20166;-47
2022/01/13 04:33:54;;;;;;;45.55;14.50;;;;;;;5.81;100.00;103193.56;5090643;28;20522;-45
2022/01/13 04:36:19;;;;;;;37.45;15.23;;;;;;;5.83;100.00;103191.84;5090180;28;20189;-45
2022/01/13 04:38:44;;;;;;;40.85;14.75;;;;;;;5.81;100.00;103199.78;5090497;28;20178;-45
2022/01/13 04:41:10;;;;;;;46.95;15.82;;;;;;;5.76;100.00;103201.47;5090381;28;20170;-47
2022/01/13 04:43:35;;;;;;;42.75;16.02;;;;;;;5.82;100.00;103190.06;5088363;28;20172;-43
2022/01/13 04:46:01;;;;;;;41.05;15.30;;;;;;;5.80;100.00;103197.09;5089738;28;20225;-46
2022/01/13 04:48:26;;;;;;;42.30;14.13;;;;;;;5.73;100.00;103173.03;5090035;28;20657;-46
2022/01/13 04:50:52;;;;;;;51.10;16.17;;;;;;;5.82;100.00;103176.75;5109639;28;20181;-44
2022/01/13 04:53:17;;;;;;;44.28;16.15;;;;;;;5.74;100.00;103185.44;5110084;28;20169;-47
2022/01/13 04:55:51;;;;;;;36.08;15.05;;;;;;;5.76;100.00;103181.06;5110204;28;20668;-48
2022/01/13 04:58:17;;;;;;;42.83;15.88;;;;;;;5.76;100.00;103181.06;5110325;28;20178;-48
2022/01/13 05:00:43;;;;;;;49.60;16.20;;;;;;;5.69;100.00;103184.47;5110761;28;20176;-46
2022/01/13 05:03:08;;;;;;;43.38;14.85;;;;;;;5.70;100.00;103191.56;5110526;28;20181;-44
2022/01/13 05:05:34;;;;;;;44.35;15.55;;;;;;;5.72;100.00;103184.53;5109930;28;20182;-48
2022/01/13 05:07:59;;;;;;;42.90;15.57;;;;;;;5.69;100.00;103188.91;5100097;28;20201;-48
2022/01/13 05:10:25;;;;;;;37.58;15.18;;;;;;;5.78;100.00;103181.09;5108978;28;20188;-44
2022/01/13 05:12:55;;;;;;;40.05;16.38;;;;;;;5.74;100.00;103187.22;5110527;28;20252;-47
2022/01/13 05:15:24;;;;;;;36.72;15.30;;;;;;;5.73;100.00;103190.78;5110155;28;20200;-49
2022/01/13 05:18:07;;;;;;;44.42;16.55;;;;;;;5.73;100.00;103206.72;5110221;28;20512;-47
2022/01/13 05:20:47;;;;;;;46.38;16.70;;;;;;;5.68;100.00;103187.09;5106416;28;20337;-48
2022/01/13 05:23:12;;;;;;;38.35;15.60;;;;;;;5.67;100.00;103191.53;5093248;28;20185;-50
2022/01/13 05:25:39;;;;;;;36.05;15.00;;;;;;;5.74;100.00;103197.88;5089476;28;20258;-48
2022/01/13 05:28:06;;;;;;;39.67;15.60;;;;;;;5.70;100.00;103188.91;5089765;28;20233;-49
2022/01/13 05:30:31;;;;;;;34.90;13.82;;;;;;;5.72;100.00;103183.63;5088803;28;20210;-45
2022/01/13 05:32:56;;;;;;;39.08;14.13;;;;;;;5.79;100.00;103188.19;5089519;28;20873;-48
2022/01/13 05:35:23;;;;;;;37.22;13.45;;;;;;;5.84;100.00;103174.97;5090041;28;20205;-48
2022/01/13 05:37:49;;;;;;;30.95;12.23;;;;;;;5.80;100.00;103198.00;5089699;28;20204;-48
2022/01/13 05:40:14;;;;;;;27.33;11.48;;;;;;;5.85;100.00;103191.00;5089718;28;20174;-47
2022/01/13 05:42:41;;;;;;;32.78;10.85;;;;;;;5.83;100.00;103197.16;5088716;28;20651;-46
2022/01/13 05:45:16;;;;;;;29.95;10.38;;;;;;;5.86;100.00;103191.88;5089666;28;20182;-48
2022/01/13 05:47:43;;;;;;;29.40;10.82;;;;;;;5.85;100.00;103192.75;5089683;28;20237;-48
2022/01/13 05:50:12;;;;;;;35.00;10.52;;;;;;;5.94;100.00;103193.84;5089410;28;20249;-47
2022/01/13 05:52:39;;;;;;;32.67;10.57;;;;;;;5.95;100.00;103198.31;5088455;28;20249;-46
2022/01/13 05:55:05;;;;;;;33.00;10.65;;;;;;;5.96;100.00;103213.41;5090847;28;20262;-48
2022/01/13 05:57:31;;;;;;;35.33;10.88;;;;;;;5.98;100.00;103203.69;5092990;28;20265;-43
2022/01/13 05:59:56;;;;;;;26.92;9.63;;;;;;;5.95;100.00;103210.75;5093733;28;20276;-45
2022/01/13 06:02:22;;;;;;;29.20;9.82;;;;;;;6.00;100.00;103222.34;5093477;28;20183;-48
2022/01/13 06:04:47;;;;;;;35.13;10.18;;;;;;;6.01;100.00;103208.16;5093710;28;20615;-47
2022/01/13 06:07:13;;;;;;;35.45;10.85;;;;;;;5.97;100.00;103211.66;5093075;28;20574;-43
2022/01/13 06:09:38;;;;;;;31.30;10.82;;;;;;;5.96;100.00;103208.09;5093341;28;20253;-47
2022/01/13 06:12:05;;;;;;;39.08;11.27;;;;;;;5.97;100.00;103209.00;5093386;28;20178;-45
2022/01/13 06:14:31;;;;;;;36.92;11.63;;;;;;;5.92;100.00;103203.53;5092738;28;20586;-48
2022/01/13 06:16:56;;;;;;;36.92;10.80;;;;;;;5.93;100.00;103199.13;5091887;28;20256;-48
2022/01/13 06:19:22;;;;;;;35.10;11.13;;;;;;;5.91;100.00;103199.09;5091815;28;20170;-47
2022/01/13 06:21:48;;;;;;;38.53;10.68;;;;;;;5.92;100.00;103202.66;5093501;28;20185;-46
2022/01/13 06:24:13;;;;;;;30.15;11.18;;;;;;;5.99;100.00;103201.91;5093355;28;20169;-48
2022/01/13 06:26:39;;;;;;;38.10;11.30;;;;;;;5.91;100.00;103198.22;5092683;28;20725;-47
2022/01/13 06:29:04;;;;;;;32.00;11.38;;;;;;;5.87;100.00;103191.03;5092963;28;20240;-48
2022/01/13 06:31:30;;;;;;;31.08;10.40;;;;;;;5.82;100.00;103206.00;5093085;28;20208;-43
2022/01/13 06:33:55;;;;;;;37.47;11.07;;;;;;;5.83;100.00;103198.03;5093299;28;20648;-48
2022/01/13 06:36:21;;;;;;;32.30;11.50;;;;;;;5.83;100.00;103202.47;5091130;28;20186;-47
2022/01/13 06:38:48;;;;;;;32.30;11.68;;;;;;;5.82;100.00;103192.72;5093078;28;20185;-46
2022/01/13 06:41:15;;;;;;;33.17;11.52;;;;;;;5.80;100.00;103200.66;5093140;28;20185;-48
2022/01/13 06:43:40;;;;;;;33.15;10.98;;;;;;;5.87;100.00;103199.91;5092478;28;20185;-45
2022/01/13 06:46:06;;;;;;;34.83;11.40;;;;;;;5.86;100.00;103202.53;5091687;28;20201;-46
2022/01/13 06:48:31;;;;;;;28.67;12.80;;;;;;;5.84;100.00;103194.53;5092645;28;20166;-48
2022/01/13 06:50:57;;;;;;;32.63;12.15;;;;;;;5.88;100.00;103206.09;5092875;28;20166;-46
2022/01/13 06:53:22;;;;;;;29.05;11.10;;;;;;;5.90;100.00;103199.97;5092679;28;20186;-47
2022/01/13 06:55:48;;;;;;;32.65;11.70;;;;;;;5.98;100.00;103208.13;5092144;28;20221;-47
2022/01/13 06:58:13;;;;;;;32.60;11.07;;;;;;;5.92;100.00;103213.28;5091351;28;20200;-49
2022/01/13 07:00:39;;;;;;;27.50;10.77;;;;;;;5.96;100.00;103208.09;5092397;28;20170;-48
2022/01/13 07:03:04;;;;;;;29.73;11.00;;;;;;;6.02;100.00;103204.66;5092667;28;20666;-49
2022/01/13 07:05:30;;;;;;;37.05;11.27;;;;;;;6.10;100.00;103208.38;5092013;28;20284;-47
2022/01/13 07:07:55;;;;;;;37.85;10.75;;;;;;;6.06;100.00;103205.63;5091355;28;20198;-46
2022/01/13 07:10:21;;;;;;;35.05;10.55;;;;;;;6.05;100.00;103195.81;5074003;28;20239;-47
2022/01/13 07:12:47;;;;;;;31.33;10.68;;;;;;;6.02;100.00;103204.66;5091567;28;20748;-50
2022/01/13 07:15:13;;;;;;;44.17;11.60;;;;;;;6.05;100.00;103215.34;5091815;28;20705;-48
2022/01/13 07:17:39;;;;;;;32.35;9.48;;;;;;;6.05;100.00;103202.03;5091552;28;20211;-47
2022/01/13 07:20:06;;;;;;;34.70;10.65;;;;;;;6.05;100.00;103204.69;5090634;28;20550;-47
2022/01/13 07:22:31;;;;;;;36.35;11.18;;;;;;;6.00;100.00;103206.38;5091686;28;20192;-48
2022/01/13 07:24:57;;;;;;;30.85;10.40;;;;;;;6.04;100.00;103204.69;5091723;28;20751;-48
2022/01/13 07:27:23;;;;;;;31.73;9.98;;;;;;;6.06;100.00;103206.50;5092008;28;20244;-48
2022/01/13 07:29:48;;;;;;;38.50;11.68;;;;;;;6.04;100.00;103218.88;5107182;28;20185;-45
2022/01/13 07:32:15;;;;;;;30.83;10.55;;;;;;;6.07;100.00;103213.63;5108557;28;20178;-46
2022/01/13 07:34:41;;;;;;;34.45;10.27;;;;;;;6.07;100.00;103223.38;5108928;28;20230;-46
2022/01/13 07:37:07;;;;;;;32.92;10.45;;;;;;;6.08;100.00;103211.84;5109412;28;20599;-46
2022/01/13 07:39:32;;;;;;;30.73;10.18;;;;;;;6.04;100.00;103212.69;5111089;28;20193;-48
2022/01/13 07:41:58;;;;;;;30.13;11.05;;;;;;;6.06;100.00;103208.28;5110972;28;20209;-47
2022/01/13 07:44:23;;;;;;;41.28;11.57;;;;;;;6.14;100.00;103214.63;5110668;28;20845;-49
2022/01/13 07:46:49;;;;;;;36.90;10.98;;;;;;;6.13;100.00;103213.72;5110635;28;20212;-42
2022/01/13 07:49:14;;;;;;;37.95;11.88;;;;;;;6.09;100.00;103222.53;5111278;27;20172;-49
2022/01/13 07:51:40;;;;;;;32.78;10.65;;;;;;;6.10;100.00;103232.31;5110888;28;20209;-48
2022/01/13 07:54:05;;;;;;;35.30;11.32;;;;;;;6.09;100.00;103226.97;5111531;28;20169;-47
2022/01/13 07:56:31;;;;;;;33.60;9.68;;;;;;;6.09;100.00;103227.84;5110952;28;20197;-46
2022/01/13 07:58:56;;;;;;;36.80;10.02;;;;;;;6.13;100.00;103234.13;5111381;28;20199;-48
2022/01/13 08:01:22;;;;;;;34.50;10.52;;;;;;;6.10;100.00;103234.97;5110578;28;20256;-46
2022/01/13 08:03:48;;;;;;;31.13;10.05;;;;;;;6.09;100.00;103240.25;5111348;28;20196;-44
2022/01/13 08:06:14;;;;;;;35.72;9.82;;;;;;;6.11;100.00;103234.09;5109584;28;20209;-45
2022/01/13 08:08:40;;;;;;;37.03;9.95;;;;;;;6.17;100.00;103233.34;5110137;28;20280;-45
2022/01/13 08:11:07;;;;;;;32.40;10.20;;;;;;;6.18;100.00;103237.78;5110983;28;20166;-45
2022/01/13 08:13:34;;;;;;;34.35;9.45;;;;;;;6.22;100.00;103234.31;5111638;28;20169;-45
2022/01/13 08:16:02;;;;;;;32.75;9.57;;;;;;;6.22;100.00;103233.41;5110989;28;20197;-45
2022/01/13 08:21:12;;;;;;;29.92;9.40;;;;;;;6.23;100.00;103236.13;5090561;28;20191;-45
2022/01/13 08:23:40;;;;;;;33.83;9.27;;;;;;;6.28;100.00;103230.88;5090814;28;20174;-46
2022/01/13 08:26:05;;;;;;;28.05;9.30;;;;;;;6.24;100.00;103221.91;5090224;28;20229;-47
2022/01/13 08:28:31;;;;;;;33.78;8.82;;;;;;;6.27;100.00;103237.03;5090707;28;20189;-45
2022/01/13 08:30:58;;;;;;;33.88;9.93;;;;;;;6.31;100.00;103239.78;5091374;28;20185;-48
2022/01/13 08:33:25;;;;;;;29.30;7.47;;;;;;;6.34;100.00;103230.94;5071621;28;20177;-45
2022/01/13 08:35:53;;;;;;;30.58;9.13;;;;;;;6.30;100.00;103226.47;5089174;28;20209;-45
2022/01/13 08:38:19;;;;;;;31.33;9.32;;;;;;;6.33;100.00;103218.53;5090421;28;20166;-47
2022/01/13 08:40:50;;;;;;;34.65;9.77;;;;;;;6.29;100.00;103222.88;5090975;28;20288;-45
2022/01/13 08:43:17;;;;;;;26.00;9.82;;;;;;;6.28;100.00;103226.44;5090704;28;20212;-46
2022/01/13 08:45:42;;;;;;;40.95;11.13;;;;;;;6.28;100.00;103212.22;5089843;28;20198;-46
2022/01/13 08:48:09;;;;;;;34.70;10.65;;;;;;;6.31;100.00;103228.25;5090661;28;20565;-47
2022/01/13 08:50:34;;;;;;;28.27;11.07;;;;;;;6.29;100.00;103216.69;5090461;28;20212;-47
2022/01/13 08:53:00;;;;;;;32.90;10.82;;;;;;;6.27;100.00;103211.31;5090366;28;20205;-45
2022/01/13 08:55:26;;;;;;;33.00;10.40;;;;;;;6.28;100.00;103215.78;5090185;28;20197;-44
2022/01/13 08:57:52;;;;;;;31.10;10.98;;;;;;;6.30;100.00;103215.81;5089939;28;20222;-46
2022/01/13 09:00:18;;;;;;;32.72;11.20;;;;;;;6.26;100.00;103211.31;5090540;28;20177;-45
2022/01/13 09:02:44;;;;;;;33.60;10.88;;;;;;;6.33;100.00;103215.88;5090146;28;20170;-47
2022/01/13 09:05:15;;;;;;;35.78;11.35;;;;;;;6.30;100.00;103210.50;5090167;28;20196;-47
2022/01/13 09:07:41;;;;;;;36.45;10.80;;;;;;;6.28;100.00;103206.91;5089904;28;20213;-43
2022/01/13 09:10:08;;;;;;;36.28;12.35;;;;;;;6.23;100.00;103211.22;5090519;28;20595;-41
2022/01/13 09:12:33;;;;;;;40.55;11.25;;;;;;;6.26;100.00;103208.66;5088749;28;20170;-42
2022/01/13 09:15:03;;;;;;;35.00;11.63;;;;;;;6.28;100.00;103214.91;5089743;28;20582;-43
2022/01/13 09:17:30;;;;;;;40.35;12.02;;;;;;;6.28;100.00;103209.56;5088512;28;20179;-44
2022/01/13 09:19:56;;;;;;;42.90;12.07;;;;;;;6.26;100.00;103200.66;5089762;28;20491;-48
2022/01/13 09:22:21;;;;;;;43.60;12.80;;;;;;;6.23;100.00;103203.25;5089989;28;20200;-46
2022/01/13 09:24:47;;;;;;;53.13;13.68;;;;;;;6.24;100.00;103205.06;5089570;28;20540;-43
2022/01/13 09:27:13;;;;;;;36.25;11.98;;;;;;;6.24;100.00;103195.31;5089400;28;20206;-44
2022/01/13 09:29:38;;;;;;;35.95;11.35;;;;;;;6.32;100.00;103187.44;5089540;28;20250;-46
2022/01/13 09:32:05;;;;;;;32.42;11.60;;;;;;;6.42;100.00;103197.38;5089864;28;20650;-47
2022/01/13 09:34:31;;;;;;;35.92;11.85;;;;;;;6.34;100.00;103188.34;5089894;28;20189;-47
2022/01/13 09:36:56;;;;;;;39.75;11.93;;;;;;;6.32;100.00;103187.44;5087812;28;20648;-47
2022/01/13 09:39:21;;;;;;;38.25;11.13;;;;;;;6.34;100.00;103191.03;5089860;28;20174;-48
2022/01/13 09:41:50;;;;;;;34.53;11.45;;;;;;;6.34;100.00;103189.28;5089926;28;20178;-46
2022/01/13 09:44:16;;;;;;;33.05;9.82;;;;;;;6.40;100.00;103177.81;5090075;28;20735;-48
2022/01/13 09:46:42;;;;;;;29.38;9.57;;;;;;;6.44;100.00;103184.09;5096516;28;20307;-45
2022/01/13 09:49:08;;;;;;;29.13;9.93;;;;;;;6.41;100.00;103184.94;5110050;28;20656;-45
2022/01/13 09:51:36;;;;;;;32.92;9.90;;;;;;;6.42;100.00;103197.38;5110360;28;20177;-45
2022/01/13 09:54:03;;;;;;;33.33;9.73;;;;;;;6.53;100.00;103186.91;5110051;28;20217;-45
2022/01/13 09:56:28;;;;;;;34.13;9.13;;;;;;;6.51;100.00;103200.19;5109777;28;20186;-46
2022/01/13 09:58:54;;;;;;;36.38;8.68;;;;;;;6.56;100.00;103203.84;5108999;28;20638;-45
2022/01/13 10:01:20;;;;;;;31.10;9.60;;;;;;;6.57;100.00;103186.97;5109893;28;20544;-48
2022/01/13 10:03:45;;;;;;;30.98;8.35;;;;;;;6.59;100.00;103193.22;5110157;28;20181;-45
2022/01/13 10:06:12;;;;;;;30.33;7.43;;;;;;;6.68;100.00;103184.50;5109409;28;21046;-45
2022/01/13 10:08:48;;;;;;;26.52;7.05;;;;;;;6.64;100.00;103179.97;5110104;28;20169;-46
2022/01/13 10:11:34;;;;;;;30.55;7.05;;;;;;;6.66;100.00;103194.22;5108782;28;20266;-46
2022/01/13 10:17:06;;;;;;;22.42;5.93;;;;;;;6.74;100.00;103178.38;5098157;28;20748;-44
2022/01/13 10:19:35;;;;;;;22.83;5.65;;;;;;;6.86;100.00;103193.66;5110058;28;20742;-47
2022/01/13 10:22:33;;;;;;;23.33;5.53;;;;;;;6.85;100.00;103178.53;5110078;28;20178;-47
2022/01/13 10:24:59;;;;;;;27.88;6.00;;;;;;;6.80;100.00;103186.47;5109244;28;20220;-45
2022/01/13 10:27:30;;;;;;;22.48;5.18;;;;;;;6.83;100.00;103185.63;5109689;28;20196;-46
2022/01/13 10:30:05;;;;;;;25.38;5.38;;;;;;;6.76;100.00;103180.19;5096693;28;20308;-44
2022/01/13 10:32:39;;;;;;;20.13;5.43;;;;;;;6.76;100.00;103181.97;5089424;28;20638;-45
2022/01/13 10:35:10;;;;;;;24.08;5.55;;;;;;;6.74;100.00;103175.72;5088818;28;20193;-45
2022/01/13 10:37:41;;;;;;;22.90;5.47;;;;;;;6.71;100.00;103186.31;5088505;28;20174;-45
2022/01/13 10:40:09;;;;;;;22.33;5.55;;;;;;;6.66;100.00;103178.25;5089099;28;20253;-46
2022/01/13 10:43:06;;;;;;;21.25;5.60;;;;;;;6.70;100.00;103161.44;5091514;28;20181;-46
2022/01/13 10:45:33;;;;;;;19.08;5.38;;;;;;;6.68;100.00;103164.97;5092397;28;20698;-45
2022/01/13 10:48:26;;;;;;;24.23;6.03;;;;;;;6.67;100.00;103180.06;5092711;28;20206;-45
2022/01/13 10:51:02;;;;;;;29.27;5.78;;;;;;;6.60;100.00;103168.41;5088548;28;20185;-45
2022/01/13 10:53:35;;;;;;;21.05;4.30;;;;;;;6.58;100.00;103158.56;5092591;28;20257;-44
2022/01/13 10:56:09;;;;;;;12.57;4.40;;;;;;;6.77;100.00;103162.44;5092174;28;20206;-44
2022/01/13 10:58:49;;;;;;;20.70;4.45;;;;;;;6.73;100.00;103158.81;5091122;28;20186;-46
2022/01/13 11:01:15;;;;;;;29.40;5.00;;;;;;;6.69;100.00;103175.66;5092652;28;20643;-45
2022/01/13 11:03:43;;;;;;;20.38;5.35;;;;;;;6.69;100.00;103166.72;5092232;28;20231;-45
2022/01/13 11:06:10;;;;;;;25.48;5.35;;;;;;;6.64;100.00;103158.66;5091742;28;20194;-45
2022/01/13 11:08:42;;;;;;;26.17;4.97;;;;;;;6.64;100.00;103169.31;5092357;28;20162;-48
2022/01/13 11:11:21;;;;;;;29.13;5.97;;;;;;;6.66;100.00;103164.03;5092681;28;20652;-47
2022/01/13 11:13:53;;;;;;;21.33;4.15;;;;;;;6.72;100.00;103156.16;5092870;28;20510;-41
2022/01/13 11:16:20;;;;;;;19.20;4.40;;;;;;;6.76;100.00;103160.66;5092092;28;20221;-40
2022/01/13 11:18:45;;;;;;;24.27;5.30;;;;;;;6.73;100.00;103171.25;5092558;28;20218;-44
2022/01/13 11:21:11;;;;;;;18.88;4.88;;;;;;;6.76;100.00;103163.31;5092431;28;20205;-46
2022/01/13 11:23:37;;;;;;;21.50;4.72;;;;;;;6.80;100.00;103167.81;5092373;28;20253;-46
2022/01/13 11:26:04;;;;;;;23.85;4.80;;;;;;;6.82;100.00;103158.06;5091649;28;20615;-47
2022/01/13 11:28:30;;;;;;;21.55;4.60;;;;;;;6.82;100.00;103168.72;5092147;28;20235;-44